createdAt,value
2018-11-13T00:00:48.338Z,13.45
2018-11-13T00:05:51.650Z,13.42
2018-11-13T00:10:54.972Z,13.42
2018-11-13T01:48:02.037Z,12.92
2018-11-13T01:53:06.115Z,12.86
2018-11-13T01:58:09.435Z,12.78
2018-11-13T03:35:15.292Z,11.63
2018-11-13T03:40:19.385Z,10.94
2018-11-13T04:48:39.710Z,10.61
2018-11-13T04:53:43.037Z,10.67
2018-11-13T04:58:46.365Z,10.48
2018-11-13T05:32:36.558Z,9.14
2018-11-13T05:37:39.875Z,9.31
2018-11-13T05:42:43.197Z,9.27
2018-11-13T05:47:46.522Z,9.66
2018-11-13T05:52:49.848Z,9.92
2018-11-13T05:57:53.170Z,10.19
2018-11-13T06:02:56.491Z,10.30
2018-11-13T06:07:59.818Z,10.41
2018-11-13T06:13:03.905Z,10.44
2018-11-13T06:18:07.239Z,10.47
2018-11-13T06:23:10.639Z,10.59
2018-11-13T06:28:13.928Z,10.66
2018-11-13T06:33:17.242Z,10.70
2018-11-13T06:38:20.578Z,10.71
2018-11-13T06:43:24.970Z,10.85
2018-11-13T06:48:28.294Z,10.73
2018-11-13T06:53:31.615Z,10.70
2018-11-13T06:58:34.942Z,10.63
2018-11-13T07:03:39.038Z,10.76
2018-11-13T07:08:42.371Z,10.82
2018-11-13T07:13:45.698Z,10.95
2018-11-13T07:18:49.032Z,11.11
2018-11-13T07:23:52.378Z,11.31
2018-11-13T07:28:55.719Z,11.49
2018-11-13T08:02:44.500Z,12.78
2018-11-13T08:07:47.825Z,12.95
2018-11-13T08:12:51.219Z,13.12
2018-11-13T09:03:59.146Z,15.24
2018-11-13T09:09:02.478Z,15.43
2018-11-13T09:14:05.827Z,15.55
2018-11-13T10:05:10.867Z,14.22
2018-11-13T10:10:13.583Z,14.65
2018-11-13T11:01:17.887Z,14.05
2018-11-13T11:06:21.216Z,14.13
2018-11-13T11:11:24.626Z,14.77
2018-11-13T12:02:28.330Z,13.86
2018-11-13T12:07:31.662Z,13.92
2018-11-13T12:12:35.753Z,14.39
2018-11-13T13:03:40.604Z,14.84
2018-11-13T13:08:44.935Z,14.71
2018-11-13T13:13:48.209Z,14.73
2018-11-13T14:04:53.923Z,14.45
2018-11-13T14:09:57.280Z,14.61
2018-11-13T14:15:00.791Z,14.45
2018-11-13T15:06:00.293Z,14.28
2018-11-13T15:11:04.407Z,14.34
2018-11-13T15:50:37.911Z,14.08
2018-11-13T15:55:42.017Z,13.98
2018-11-13T16:35:16.048Z,13.98
2018-11-13T16:40:19.842Z,14.06
2018-11-13T16:45:23.935Z,13.98
2018-11-13T16:50:27.265Z,14.15
2018-11-13T16:55:30.852Z,14.20
2018-11-13T17:00:34.280Z,14.17
2018-11-13T17:05:37.545Z,14.11
2018-11-13T17:10:41.619Z,14.23
2018-11-13T17:15:44.963Z,14.22
2018-11-13T17:20:49.044Z,14.23
2018-11-13T17:25:52.386Z,14.20
2018-11-13T17:30:56.466Z,14.18
2018-11-13T17:35:59.792Z,14.15
2018-11-13T17:41:03.110Z,14.11
2018-11-13T17:46:09.214Z,14.05
2018-11-13T17:51:12.563Z,14.01
2018-11-13T17:56:15.883Z,13.90
2018-11-13T18:01:19.216Z,13.86
2018-11-13T18:06:22.539Z,13.79
2018-11-13T18:11:25.858Z,13.81
2018-11-13T18:16:29.188Z,13.76
2018-11-13T18:21:32.591Z,13.65
2018-11-13T18:26:37.871Z,13.62
2018-11-13T18:31:41.210Z,13.44
2018-11-13T18:36:44.550Z,13.35
2018-11-13T18:41:47.871Z,13.29
2018-11-13T18:46:51.190Z,13.14
2018-11-13T18:51:54.506Z,13.08
2018-11-13T18:56:57.827Z,13.11
2018-11-13T19:02:01.153Z,12.96
2018-11-13T19:07:04.486Z,13.05
2018-11-13T19:12:07.935Z,13.12
2018-11-13T19:17:11.183Z,13.15
2018-11-13T19:22:14.484Z,13.12
2018-11-13T19:27:17.807Z,13.06
2018-11-13T19:32:21.140Z,13.04
2018-11-13T19:37:24.468Z,12.92
2018-11-13T19:42:28.551Z,12.89
2018-11-13T19:47:31.882Z,12.79
2018-11-13T19:52:35.204Z,12.72
2018-11-13T19:57:38.564Z,12.57
2018-11-13T20:02:42.638Z,12.60
2018-11-13T20:07:45.970Z,12.47
2018-11-13T20:12:50.053Z,12.33
2018-11-13T20:17:53.384Z,12.21
2018-11-13T20:22:56.702Z,12.17
2018-11-13T20:28:00.064Z,12.17
2018-11-13T20:33:03.444Z,12.26
2018-11-13T20:38:06.739Z,12.24
2018-11-13T20:43:10.069Z,12.21
2018-11-13T20:48:13.386Z,12.17
2018-11-13T20:53:16.707Z,12.18
2018-11-13T20:58:20.036Z,11.96
2018-11-13T21:03:23.362Z,11.75
2018-11-13T21:08:26.689Z,11.63
2018-11-13T21:13:30.078Z,11.64
2018-11-13T21:18:33.370Z,11.62
2018-11-13T21:23:36.789Z,11.59
2018-11-13T21:28:40.048Z,11.59
2018-11-13T21:33:43.366Z,11.64
2018-11-13T21:38:46.683Z,11.67
2018-11-13T21:43:49.999Z,11.67
2018-11-13T21:48:53.338Z,11.52
2018-11-13T21:53:56.662Z,11.46
2018-11-13T21:58:59.997Z,11.45
2018-11-13T22:04:03.340Z,11.39
2018-11-13T22:09:06.664Z,11.31
2018-11-13T22:14:09.990Z,11.34
2018-11-13T22:19:13.322Z,11.32
2018-11-13T22:24:16.641Z,11.12
2018-11-13T22:29:19.972Z,11.03
2018-11-13T22:34:23.289Z,10.96
2018-11-13T22:39:26.602Z,10.99
2018-11-13T22:44:29.924Z,11.01
2018-11-13T22:49:33.250Z,10.93
2018-11-13T22:54:36.566Z,10.87
2018-11-13T22:59:39.883Z,10.78
2018-11-13T23:04:43.210Z,10.67
2018-11-13T23:09:46.543Z,10.73
2018-11-13T23:14:50.664Z,10.69
2018-11-13T23:19:53.965Z,10.66
2018-11-13T23:24:57.290Z,10.55
2018-11-13T23:30:00.619Z,10.49
2018-11-13T23:35:05.188Z,10.43
2018-11-13T23:40:08.039Z,10.45
2018-11-13T23:45:11.364Z,10.45
2018-11-13T23:50:15.454Z,10.40
2018-11-13T23:55:18.776Z,10.26
